Time;durP1;ratioP1;P1;durP2;ratioP2;P2;SDS_P1;SDS_P2;PMS_P1;PMS_P2;Temp;Humidity;BMP_temperature;BMP_pressure;BME280_temperature;BME280_humidity;BME280_pressure;Samples;Min_cycle;Max_cycle;Signal;HPM_P1;HPM_P2
2023/06/30 00:03:55;;;;;;;7.03;3.60;;;;;;;19.72;92.25;99304.00;12210475;19;20011;-80
2023/06/30 00:07:58;;;;;;;7.03;4.32;;;;;;;19.71;92.10;99296.75;12203390;19;20035;-79
2023/06/30 00:12:00;;;;;;;5.25;3.47;;;;;;;19.72;91.87;99306.78;12187187;19;20019;-80
2023/06/30 00:17:07;;;;;;;6.82;3.72;;;;;;;19.74;92.35;99305.31;12203197;19;20015;-79
2023/06/30 00:21:56;;;;;;;7.07;4.20;;;;;;;19.79;91.76;99299.59;12207326;19;20488;-79
2023/06/30 00:26:02;;;;;;;6.28;3.78;;;;;;;19.85;91.61;99291.88;12207347;19;20003;-80
2023/06/30 00:30:04;;;;;;;8.45;4.43;;;;;;;19.95;91.04;99297.16;12185931;19;20006;-79
2023/06/30 00:34:06;;;;;;;5.70;4.28;;;;;;;20.03;90.59;99285.19;12207471;19;20031;-79
2023/06/30 00:38:08;;;;;;;8.38;4.53;;;;;;;20.11;90.45;99279.91;12209193;19;20053;-79
2023/06/30 00:42:10;;;;;;;6.07;3.90;;;;;;;20.20;89.69;99276.00;12186094;19;20365;-79
2023/06/30 00:46:15;;;;;;;6.55;3.45;;;;;;;20.30;89.17;99283.25;12204677;19;20060;-79
2023/06/30 00:50:19;;;;;;;5.65;3.80;;;;;;;20.38;88.87;99265.66;12207060;19;20013;-79
2023/06/30 00:54:21;;;;;;;8.90;4.03;;;;;;;20.45;88.64;99260.38;12184085;19;20113;-79
2023/06/30 00:58:24;;;;;;;6.93;4.55;;;;;;;20.53;88.37;99266.34;12209259;19;20364;-79
2023/06/30 01:02:28;;;;;;;8.80;4.22;;;;;;;20.59;88.18;99268.66;12203050;19;20018;-80
2023/06/30 01:06:38;;;;;;;8.35;4.40;;;;;;;20.64;88.27;99267.66;12185755;19;20014;-80
2023/06/30 01:10:42;;;;;;;6.53;4.03;;;;;;;20.67;87.67;99267.84;12206042;19;20041;-80
2023/06/30 01:14:46;;;;;;;8.27;4.28;;;;;;;20.72;87.56;99261.22;12203768;19;20027;-80
2023/06/30 01:18:52;;;;;;;6.25;3.35;;;;;;;20.77;86.91;99260.25;12185979;19;20373;-80
2023/06/30 01:23:00;;;;;;;6.95;3.95;;;;;;;20.82;86.77;99257.25;12210706;19;20015;-80
2023/06/30 01:27:03;;;;;;;6.45;3.85;;;;;;;20.83;86.98;99254.13;12239099;19;20007;-80
2023/06/30 01:31:08;;;;;;;;;;;;;;;20.71;88.37;99254.00;12217171;19;20074;-80
2023/06/30 01:35:11;;;;;;;8.30;5.13;;;;;;;20.62;87.98;99268.00;12212065;19;19914;-80
2023/06/30 01:39:15;;;;;;;9.50;5.85;;;;;;;20.44;88.68;99258.75;12188564;19;20025;-80
2023/06/30 01:43:17;;;;;;;9.52;5.85;;;;;;;20.26;90.02;99271.09;12204154;19;20015;-80
2023/06/30 01:47:21;;;;;;;9.77;5.68;;;;;;;20.11;90.60;99255.59;12209289;19;20003;-79
2023/06/30 01:51:24;;;;;;;10.45;5.97;;;;;;;20.00;91.74;99246.69;12186405;19;20557;-80
2023/06/30 01:55:26;;;;;;;8.45;6.05;;;;;;;19.90;92.67;99238.63;12207916;19;20014;-80
2023/06/30 01:59:28;;;;;;;9.77;6.45;;;;;;;19.85;94.16;99233.16;12209398;19;20003;-79
2023/06/30 02:03:29;;;;;;;9.45;5.43;;;;;;;19.82;94.41;99219.03;12184922;19;20010;-79
2023/06/30 02:07:31;;;;;;;11.63;6.13;;;;;;;19.81;94.85;99229.38;12206475;19;20014;-80
2023/06/30 02:11:33;;;;;;;11.93;6.00;;;;;;;19.77;95.31;99239.56;12204293;19;20283;-79
2023/06/30 02:15:35;;;;;;;11.68;6.30;;;;;;;19.72;96.17;99237.75;12178935;19;20404;-79
2023/06/30 02:19:37;;;;;;;9.73;5.43;;;;;;;19.69;97.10;99241.19;12204128;19;20459;-80
2023/06/30 02:23:38;;;;;;;9.77;6.10;;;;;;;19.70;98.11;99239.22;12204458;19;20007;-79
2023/06/30 02:27:42;;;;;;;7.97;5.90;;;;;;;19.68;98.60;99227.53;12179511;19;20011;-80
2023/06/30 02:31:44;;;;;;;9.18;5.70;;;;;;;19.68;98.77;99231.16;12202792;19;20007;-79
2023/06/30 02:35:46;;;;;;;11.65;6.35;;;;;;;19.67;98.75;99223.09;12215084;19;20032;-79
2023/06/30 02:39:48;;;;;;;8.68;6.75;;;;;;;19.68;99.08;99224.75;12191249;19;20011;-79
2023/06/30 02:43:50;;;;;;;12.95;6.38;;;;;;;19.67;99.78;99218.31;12214069;19;20496;-79
2023/06/30 02:47:52;;;;;;;10.25;5.22;;;;;;;19.64;100.00;99210.56;12208324;19;20011;-79
2023/06/30 02:51:54;;;;;;;7.55;5.95;;;;;;;19.63;100.00;99222.91;12218127;19;20037;-79
2023/06/30 02:55:56;;;;;;;10.65;6.18;;;;;;;19.61;100.00;99225.19;12207126;19;20014;-80
2023/06/30 02:59:59;;;;;;;8.52;5.40;;;;;;;19.56;100.00;99222.53;12191955;19;20523;-80
2023/06/30 03:04:01;;;;;;;8.52;5.53;;;;;;;19.54;100.00;99220.06;12216550;19;20014;-80
2023/06/30 03:08:05;;;;;;;14.07;5.80;;;;;;;19.50;100.00;99224.66;12215121;19;20010;-80
2023/06/30 03:12:08;;;;;;;8.15;5.93;;;;;;;19.41;100.00;99229.38;12192331;19;20070;-80
2023/06/30 03:16:10;;;;;;;7.65;4.88;;;;;;;19.36;100.00;99237.91;12212082;19;20013;-80
2023/06/30 03:20:12;;;;;;;7.72;5.57;;;;;;;19.33;100.00;99230.16;12212881;19;20010;-79
2023/06/30 03:24:15;;;;;;;10.38;5.90;;;;;;;19.30;100.00;99237.25;12192193;19;20002;-79
2023/06/30 03:28:17;;;;;;;10.68;6.38;;;;;;;19.29;100.00;99237.56;12211231;19;20010;-79
2023/06/30 03:32:19;;;;;;;11.77;6.97;;;;;;;19.26;100.00;99247.41;12211770;19;20472;-79
2023/06/30 03:36:21;;;;;;;8.27;6.13;;;;;;;19.24;100.00;99260.03;12190634;19;20102;-80
2023/06/30 03:40:23;;;;;;;9.77;6.47;;;;;;;19.19;100.00;99277.75;12214146;19;20479;-80
2023/06/30 03:44:26;;;;;;;11.00;7.83;;;;;;;19.09;100.00;99267.66;12205891;19;20078;-78
2023/06/30 03:48:31;;;;;;;10.18;7.30;;;;;;;19.00;100.00;99277.97;12190848;19;20044;-80
2023/06/30 03:52:33;;;;;;;12.43;7.90;;;;;;;18.91;100.00;99268.72;12211253;19;20006;-80
2023/06/30 03:56:35;;;;;;;12.82;8.02;;;;;;;18.79;100.00;99277.66;12212299;19;20014;-79
2023/06/30 04:00:37;;;;;;;11.30;8.48;;;;;;;18.74;100.00;99285.31;12189099;19;20024;-79
2023/06/30 04:04:39;;;;;;;13.23;8.15;;;;;;;18.65;100.00;99283.28;12210974;19;20007;-79
2023/06/30 04:08:41;;;;;;;10.88;7.10;;;;;;;18.61;100.00;99282.25;12210659;19;20018;-79
2023/06/30 04:12:43;;;;;;;10.40;7.40;;;;;;;18.54;100.00;99276.28;12186054;19;20070;-79
2023/06/30 04:16:45;;;;;;;12.00;8.55;;;;;;;18.40;100.00;99281.09;12212412;19;20341;-80
2023/06/30 04:20:47;;;;;;;13.65;8.70;;;;;;;18.30;100.00;99271.00;12209985;19;20014;-80
2023/06/30 04:24:49;;;;;;;12.60;7.90;;;;;;;18.26;100.00;99275.53;12187355;19;20106;-80
2023/06/30 04:28:51;;;;;;;13.25;8.45;;;;;;;18.18;100.00;99271.56;12208369;19;20125;-80
2023/06/30 04:32:54;;;;;;;12.55;9.25;;;;;;;18.18;100.00;99276.31;12185956;19;20648;-80
2023/06/30 04:36:57;;;;;;;15.93;8.93;;;;;;;18.15;100.00;99297.28;12208509;19;20018;-81
2023/06/30 04:40:59;;;;;;;12.77;8.43;;;;;;;18.21;100.00;99278.47;12209358;19;20032;-82
2023/06/30 04:45:01;;;;;;;21.53;9.93;;;;;;;18.24;100.00;99277.03;12189904;19;20003;-81
2023/06/30 04:49:04;;;;;;;;;;;;;;;18.22;100.00;99268.97;12213474;19;20079;-81
2023/06/30 04:53:06;;;;;;;13.30;9.98;;;;;;;18.25;100.00;99250.78;12207340;19;19903;-80
2023/06/30 04:57:08;;;;;;;17.15;10.95;;;;;;;18.27;100.00;99257.69;12186853;19;20070;-82
2023/06/30 05:01:10;;;;;;;19.08;12.48;;;;;;;18.30;100.00;99268.22;12212555;19;20030;-81
2023/06/30 05:05:13;;;;;;;20.15;13.05;;;;;;;18.35;100.00;99261.69;12209385;19;20006;-81
2023/06/30 05:09:16;;;;;;;29.20;14.93;;;;;;;18.40;100.00;99265.19;12194561;19;20021;-80
2023/06/30 05:13:18;;;;;;;25.17;15.48;;;;;;;18.45;100.00;99278.19;12210882;19;20013;-80
2023/06/30 05:17:20;;;;;;;25.42;15.48;;;;;;;18.51;100.00;99264.94;12209938;19;20002;-82
2023/06/30 05:21:22;;;;;;;24.70;14.25;;;;;;;18.60;100.00;99258.28;12188752;19;20010;-80
2023/06/30 05:25:24;;;;;;;25.67;13.90;;;;;;;18.73;100.00;99264.97;12208538;19;20023;-80
2023/06/30 05:29:33;;;;;;;24.80;14.80;;;;;;;18.89;100.00;99276.59;12203194;19;20028;-82
2023/06/30 05:33:35;;;;;;;30.30;15.60;;;;;;;19.06;100.00;99285.06;12184884;19;20018;-80
2023/06/30 05:37:41;;;;;;;25.30;14.07;;;;;;;19.17;100.00;99276.44;12200006;19;20468;-81
2023/06/30 05:41:45;;;;;;;21.60;13.43;;;;;;;19.29;100.00;99276.66;12210609;19;20006;-80
2023/06/30 05:45:49;;;;;;;23.70;14.00;;;;;;;19.44;100.00;99275.41;12189026;19;20644;-79
2023/06/30 05:49:51;;;;;;;25.60;14.52;;;;;;;19.61;100.00;99271.88;12214041;19;20006;-80
2023/06/30 05:53:54;;;;;;;24.55;14.15;;;;;;;19.70;100.00;99289.53;12193657;19;20020;-80
2023/06/30 05:57:56;;;;;;;24.00;15.23;;;;;;;19.78;100.00;99285.91;12211303;19;20377;-81
2023/06/30 06:01:58;;;;;;;29.17;14.75;;;;;;;19.86;100.00;99295.50;12211445;19;20010;-80
2023/06/30 06:05:59;;;;;;;24.00;15.13;;;;;;;20.03;100.00;99313.16;12207284;19;20014;-79
2023/06/30 06:10:03;;;;;;;23.95;15.15;;;;;;;20.19;100.00;99315.47;12223973;19;20007;-80
2023/06/30 06:14:05;;;;;;;;;;;;;;;20.33;100.00;99312.56;12217022;19;20026;-80
2023/06/30 06:18:08;;;;;;;26.88;14.95;;;;;;;20.58;100.00;99319.34;12202620;19;19914;-79
2023/06/30 06:22:10;;;;;;;25.40;16.40;;;;;;;20.71;100.00;99323.97;12221166;19;20014;-80
2023/06/30 06:26:14;;;;;;;29.48;17.55;;;;;;;20.85;100.00;99327.44;12223250;19;20078;-79
2023/06/30 06:30:16;;;;;;;36.77;19.77;;;;;;;20.96;100.00;99341.09;12199701;19;20011;-79
2023/06/30 06:34:18;;;;;;;30.10;18.30;;;;;;;21.03;100.00;99336.66;12227778;19;20234;-79
2023/06/30 06:38:20;;;;;;;34.80;20.33;;;;;;;21.08;100.00;99321.66;12221075;19;20010;-78
2023/06/30 06:42:22;;;;;;;35.40;19.90;;;;;;;21.19;100.00;99322.13;12191546;19;20026;-77
2023/06/30 06:46:24;;;;;;;37.63;21.13;;;;;;;21.25;100.00;99321.63;12212754;19;20382;-78
2023/06/30 06:50:26;;;;;;;36.20;21.67;;;;;;;21.31;100.00;99313.84;12214734;19;20098;-79
2023/06/30 06:54:30;;;;;;;40.42;21.23;;;;;;;21.42;100.00;99314.34;12196375;19;20018;-78
2023/06/30 06:58:36;;;;;;;39.78;22.45;;;;;;;21.66;100.00;99317.41;12225494;19;20014;-78
2023/06/30 07:02:37;;;;;;;47.97;25.40;;;;;;;21.71;100.00;99322.81;12219703;19;20029;-78
2023/06/30 07:06:40;;;;;;;44.45;24.27;;;;;;;21.76;100.00;99322.63;12196242;19;20061;-78
2023/06/30 07:10:42;;;;;;;;;;;;;;;21.71;100.00;99322.00;12218896;19;20031;-80
2023/06/30 07:14:44;;;;;;;47.65;27.23;;;;;;;21.73;100.00;99330.91;12217483;19;20391;-78
2023/06/30 07:18:49;;;;;;;47.78;25.80;;;;;;;21.77;100.00;99332.72;12190509;19;20115;-78
2023/06/30 07:22:53;;;;;;;46.28;26.13;;;;;;;21.88;100.00;99337.94;12214393;19;20074;-78
2023/06/30 07:26:55;;;;;;;43.30;25.25;;;;;;;21.77;100.00;99341.13;12191355;19;20032;-79
2023/06/30 07:30:57;;;;;;;47.00;24.88;;;;;;;21.69;100.00;99341.97;12218109;19;20010;-79
2023/06/30 07:35:01;;;;;;;45.28;22.25;;;;;;;21.42;100.00;99342.38;12214839;19;20019;-78
2023/06/30 07:39:03;;;;;;;36.75;19.70;;;;;;;21.37;100.00;99343.38;12193834;19;20023;-79
2023/06/30 07:43:05;;;;;;;33.55;18.60;;;;;;;21.36;100.00;99345.38;12209860;19;20035;-80
2023/06/30 07:47:07;;;;;;;32.00;17.17;;;;;;;21.58;100.00;99343.50;12219077;19;20655;-79
2023/06/30 07:51:11;;;;;;;29.00;15.57;;;;;;;21.69;100.00;99363.59;12197033;19;20006;-80
2023/06/30 07:55:13;;;;;;;28.37;15.60;;;;;;;21.71;100.00;99366.84;12217347;19;20079;-80
2023/06/30 07:59:15;;;;;;;23.60;12.98;;;;;;;21.77;100.00;99363.56;12217715;19;20003;-80
2023/06/30 08:03:17;;;;;;;27.23;16.65;;;;;;;21.80;100.00;99353.63;12193854;19;20025;-79
2023/06/30 08:07:19;;;;;;;27.15;13.77;;;;;;;21.90;100.00;99364.50;12215653;19;20078;-81
2023/06/30 08:11:41;;;;;;;21.65;12.00;;;;;;;21.86;100.00;99360.69;12218258;19;20040;-79
2023/06/30 08:15:42;;;;;;;13.95;8.13;;;;;;;21.50;100.00;99361.97;12191793;19;20010;-80
2023/06/30 08:19:49;;;;;;;10.00;6.25;;;;;;;21.21;100.00;99361.81;12213631;19;20733;-80
2023/06/30 08:23:51;;;;;;;6.22;3.97;;;;;;;20.94;100.00;99367.47;12215643;19;20403;-81
2023/06/30 08:27:54;;;;;;;7.90;3.35;;;;;;;20.70;100.00;99367.97;12192730;19;20018;-79
2023/06/30 08:31:56;;;;;;;6.25;3.60;;;;;;;20.82;100.00;99364.50;12216236;19;20014;-79
2023/06/30 08:35:59;;;;;;;5.45;3.13;;;;;;;20.97;100.00;99373.53;12191002;19;20488;-81
2023/06/30 08:40:05;;;;;;;8.38;3.67;;;;;;;21.19;100.00;99372.56;12215161;19;20088;-81
2023/06/30 08:44:09;;;;;;;4.70;3.00;;;;;;;21.46;100.00;99377.00;12215054;19;20672;-80
2023/06/30 08:48:12;;;;;;;5.13;3.30;;;;;;;21.11;100.00;99385.41;12206605;19;20033;-81
2023/06/30 08:52:15;;;;;;;4.72;2.85;;;;;;;20.82;100.00;99391.66;12265706;19;20059;-78
2023/06/30 08:56:19;;;;;;;5.70;2.90;;;;;;;20.49;100.00;99397.69;12221565;19;20022;-80
2023/06/30 09:00:23;;;;;;;5.05;2.78;;;;;;;20.28;100.00;99397.47;12198808;19;20074;-80
2023/06/30 09:09:03;;;;;;;5.57;2.55;;;;;;;20.08;100.00;99395.25;12197546;19;20352;-81
2023/06/30 09:13:12;;;;;;;3.63;2.70;;;;;;;20.07;100.00;99393.59;12212681;19;20031;-80
2023/06/30 09:17:16;;;;;;;3.70;2.13;;;;;;;19.92;100.00;99404.06;12214255;19;21308;-79
2023/06/30 09:21:20;;;;;;;3.38;1.90;;;;;;;19.76;100.00;99395.28;12192836;19;20039;-81
2023/06/30 09:25:35;;;;;;;3.47;1.95;;;;;;;19.89;100.00;99407.50;12211202;19;20003;-81
2023/06/30 09:29:37;;;;;;;2.83;2.10;;;;;;;20.17;100.00;99410.94;12213056;19;20070;-81
2023/06/30 09:33:40;;;;;;;4.40;2.38;;;;;;;20.32;100.00;99412.47;12197284;19;20386;-81
2023/06/30 09:37:44;;;;;;;3.78;2.10;;;;;;;20.55;100.00;99403.97;12215498;19;20010;-81
2023/06/30 09:41:47;;;;;;;3.10;1.90;;;;;;;20.77;100.00;99412.25;12217726;19;20010;-80
2023/06/30 09:45:57;;;;;;;2.63;1.92;;;;;;;20.75;100.00;99416.53;12195870;19;20010;-81
2023/06/30 09:50:00;;;;;;;3.47;2.15;;;;;;;20.66;100.00;99420.13;12226311;19;20014;-79
2023/06/30 09:54:08;;;;;;;3.17;2.10;;;;;;;20.55;100.00;99412.38;12201671;19;20356;-79
2023/06/30 09:58:11;;;;;;;4.63;2.25;;;;;;;20.34;100.00;99417.72;12225301;19;20018;-80
2023/06/30 10:02:13;;;;;;;2.92;2.22;;;;;;;20.14;100.00;99419.16;12223879;19;20003;-80
2023/06/30 10:06:18;;;;;;;2.85;2.05;;;;;;;20.19;100.00;99421.78;12202471;19;20130;-81
2023/06/30 10:10:20;;;;;;;5.15;2.05;;;;;;;20.22;100.00;99423.94;12224229;19;20014;-81
2023/06/30 10:14:31;;;;;;;3.25;1.95;;;;;;;20.30;100.00;99436.31;12223642;19;20010;-83
2023/06/30 10:18:37;;;;;;;9.50;1.90;;;;;;;20.36;100.00;99423.81;12201343;19;20003;-79
2023/06/30 10:22:40;;;;;;;5.05;2.10;;;;;;;20.37;100.00;99428.25;12224034;19;20051;-80
2023/06/30 10:26:42;;;;;;;;;;;;;;;20.14;100.00;99441.53;12226752;19;20360;-80
2023/06/30 10:30:44;;;;;;;3.45;2.15;;;;;;;19.98;100.00;99441.94;12205798;19;19915;-80
2023/06/30 10:34:49;;;;;;;6.57;2.50;;;;;;;19.74;100.00;99444.28;12230618;19;20021;-80
2023/06/30 10:38:54;;;;;;;3.42;2.47;;;;;;;19.61;100.00;99445.97;12229518;19;20595;-80
2023/06/30 10:42:57;;;;;;;3.17;2.05;;;;;;;19.55;100.00;99444.47;12256369;19;20022;-79
2023/06/30 10:46:59;;;;;;;3.50;2.00;;;;;;;19.75;100.00;99435.59;12260711;19;20010;-79
2023/06/30 10:51:04;;;;;;;8.03;2.17;;;;;;;20.17;100.00;99430.50;12238225;19;20011;-79
2023/06/30 10:55:06;;;;;;;6.15;1.85;;;;;;;20.43;100.00;99432.56;12220115;19;20034;-79
2023/06/30 10:59:08;;;;;;;3.03;1.90;;;;;;;20.39;100.00;99432.41;12216916;19;20034;-79
2023/06/30 11:03:11;;;;;;;3.78;1.75;;;;;;;20.26;100.00;99447.34;12196097;19;20015;-81
2023/06/30 11:07:17;;;;;;;2.97;1.67;;;;;;;20.14;100.00;99433.13;12222484;19;20011;-79
2023/06/30 11:11:19;;;;;;;2.50;1.40;;;;;;;20.23;100.00;99434.00;12222112;19;20014;-80
2023/06/30 11:15:28;;;;;;;5.22;1.80;;;;;;;20.22;100.00;99429.53;12193296;19;20043;-80
2023/06/30 11:19:30;;;;;;;4.32;1.75;;;;;;;20.18;100.00;99434.13;12222106;19;20010;-79
2023/06/30 11:23:41;;;;;;;3.53;1.83;;;;;;;20.19;100.00;99430.19;12221618;19;20038;-80
2023/06/30 11:27:45;;;;;;;2.92;1.88;;;;;;;20.20;100.00;99424.28;12199737;19;20409;-83
2023/06/30 11:31:48;;;;;;;5.50;2.33;;;;;;;20.24;100.00;99424.44;12222044;19;20393;-82
2023/06/30 11:35:52;;;;;;;3.30;1.60;;;;;;;20.28;100.00;99417.03;12221385;19;20021;-80
2023/06/30 11:39:57;;;;;;;8.30;2.40;;;;;;;20.55;97.50;99413.19;12199828;19;20022;-79
2023/06/30 11:43:59;;;;;;;2.95;1.98;;;;;;;20.69;96.02;99404.66;12219574;19;20043;-82
2023/06/30 11:48:01;;;;;;;4.07;2.07;;;;;;;21.01;93.29;99422.16;12194083;19;20517;-80
2023/06/30 11:52:04;;;;;;;3.37;2.00;;;;;;;;;;12221137;19;20010;-80
2023/06/30 11:56:06;;;;;;;5.47;2.05;;;;;;;21.29;91.15;99414.25;12220294;19;20017;-81
2023/06/30 12:00:17;;;;;;;6.28;2.40;;;;;;;21.07;90.77;99409.66;12200634;19;20010;-80
2023/06/30 12:04:35;;;;;;;3.63;2.30;;;;;;;21.15;91.09;99414.44;12220192;19;20027;-81
2023/06/30 12:08:38;;;;;;;6.28;2.70;;;;;;;21.89;87.78;99407.72;12222618;19;20002;-81
2023/06/30 12:12:41;;;;;;;7.13;2.63;;;;;;;23.11;80.64;99419.16;12198075;19;20468;-79
2023/06/30 12:16:45;;;;;;;9.57;2.25;;;;;;;24.13;75.41;99413.16;12220789;19;20487;-81
2023/06/30 12:20:50;;;;;;;4.30;2.72;;;;;;;24.63;69.37;99407.22;12217356;19;20021;-81
2023/06/30 12:24:54;;;;;;;5.13;2.38;;;;;;;25.20;65.07;99402.53;12196838;19;20010;-81
2023/06/30 12:29:03;;;;;;;4.68;2.83;;;;;;;26.08;60.26;99394.06;12215671;19;20015;-79
2023/06/30 12:33:06;;;;;;;5.15;2.65;;;;;;;26.10;60.18;99403.81;12195261;19;20006;-81
2023/06/30 12:37:09;;;;;;;4.40;2.53;;;;;;;27.20;56.96;99390.72;12237274;19;20018;-83
2023/06/30 12:41:14;;;;;;;3.58;2.33;;;;;;;27.48;54.64;99398.13;12255522;19;20018;-83
2023/06/30 12:45:15;;;;;;;3.97;2.58;;;;;;;27.11;54.94;99400.56;12196925;19;20019;-82
2023/06/30 12:49:17;;;;;;;4.82;2.72;;;;;;;26.30;57.22;99401.09;12212463;19;20007;-82
2023/06/30 12:53:19;;;;;;;6.53;2.70;;;;;;;25.42;59.45;99396.31;12222247;19;20010;-82
2023/06/30 12:57:21;;;;;;;5.05;3.20;;;;;;;24.78;61.82;99391.56;12197392;19;20010;-82
2023/06/30 13:01:23;;;;;;;5.57;2.78;;;;;;;24.37;64.04;99393.47;12217706;19;20031;-82
2023/06/30 13:05:25;;;;;;;6.03;2.92;;;;;;;24.23;65.36;99384.53;12215334;19;20039;-82
2023/06/30 13:09:27;;;;;;;4.93;2.70;;;;;;;24.43;65.34;99386.44;12194672;19;20632;-81
2023/06/30 13:13:30;;;;;;;8.75;3.08;;;;;;;24.42;65.35;99384.81;12217242;19;20296;-81
2023/06/30 13:17:32;;;;;;;;;;;;;;;24.21;66.40;99387.72;12217739;19;20021;-81
2023/06/30 13:21:35;;;;;;;4.53;3.05;;;;;;;24.05;67.12;99378.31;12194536;19;19923;-81
2023/06/30 13:25:37;;;;;;;4.53;2.87;;;;;;;23.90;66.81;99381.81;12213031;19;20018;-81
2023/06/30 13:29:51;;;;;;;5.65;3.28;;;;;;;23.62;68.11;99376.81;12215926;19;20238;-81
2023/06/30 13:33:52;;;;;;;;;;;;;;;23.81;68.04;99377.09;12193247;19;20017;-80
2023/06/30 13:37:54;;;;;;;5.15;3.42;;;;;;;23.99;67.84;99377.72;12215752;19;19952;-80
2023/06/30 13:41:56;;;;;;;4.60;2.75;;;;;;;24.24;67.07;99369.28;12193337;19;20017;-80
2023/06/30 13:45:59;;;;;;;4.87;3.00;;;;;;;24.18;67.21;99370.69;12209299;19;20530;-80
2023/06/30 13:50:02;;;;;;;6.75;3.85;;;;;;;23.99;66.70;99363.66;12220101;19;20493;-80
2023/06/30 13:55:05;;;;;;;7.05;3.50;;;;;;;24.28;65.95;99361.78;12188584;19;20011;-81
2023/06/30 13:59:18;;;;;;;5.63;3.10;;;;;;;24.60;64.62;99350.75;12189050;19;20007;-79
2023/06/30 14:03:38;;;;;;;17.48;5.43;;;;;;;24.52;64.57;99366.63;12211055;19;20105;-79
2023/06/30 14:07:40;;;;;;;5.68;3.45;;;;;;;24.31;63.43;99359.09;12211552;19;20014;-79
2023/06/30 14:11:42;;;;;;;;;;;;;;;24.23;63.96;99362.84;12214979;19;20006;-79
2023/06/30 14:20:46;;;;;;;7.78;3.58;;;;;;;23.70;66.26;99349.78;12230057;19;20023;-79
2023/06/30 14:24:48;;;;;;;5.93;4.20;;;;;;;23.72;66.06;99339.81;12186264;19;20014;-81
2023/06/30 14:29:02;;;;;;;5.95;3.15;;;;;;;23.65;65.94;99342.38;12213669;19;20028;-81
2023/06/30 14:33:04;;;;;;;7.63;3.10;;;;;;;23.69;67.66;99342.50;12199160;19;20027;-79
2023/06/30 14:37:16;;;;;;;3.80;2.63;;;;;;;23.92;69.36;99342.91;12214954;19;20026;-79
2023/06/30 14:41:22;;;;;;;;;;;;;;;24.87;67.90;99323.81;12220186;19;20069;-79
2023/06/30 14:45:57;;;;;;;9.75;2.72;;;;;;;26.46;61.66;99324.78;12173640;19;19955;-80
2023/06/30 14:49:59;;;;;;;3.97;2.38;;;;;;;29.04;53.40;99328.31;12239769;19;20038;-80
2023/06/30 14:54:02;;;;;;;4.07;2.42;;;;;;;30.48;46.40;99315.53;12199082;19;20007;-79
2023/06/30 14:58:07;;;;;;;4.85;2.92;;;;;;;29.84;47.49;99322.31;12222186;19;20014;-78
2023/06/30 15:02:13;;;;;;;4.60;2.38;;;;;;;29.11;48.41;99306.91;12233815;19;20123;-79
2023/06/30 15:06:15;;;;;;;4.50;3.13;;;;;;;28.84;47.42;99312.63;12198400;19;20010;-79
2023/06/30 15:10:17;;;;;;;3.92;2.85;;;;;;;28.93;47.21;99306.69;12218975;19;20007;-78
2023/06/30 15:14:19;;;;;;;;;;;;;;;27.91;50.13;99309.19;12215615;19;20346;-78
2023/06/30 15:18:22;;;;;;;4.55;2.70;;;;;;;26.79;54.18;99299.72;12198611;19;19974;-78
2023/06/30 15:22:28;;;;;;;3.45;2.10;;;;;;;27.02;54.02;99299.81;12219583;19;20007;-79
2023/06/30 15:26:31;;;;;;;3.65;2.53;;;;;;;27.19;52.85;99290.09;12218741;19;20492;-79
2023/06/30 15:30:33;;;;;;;6.22;3.58;;;;;;;26.87;53.04;99286.56;12195315;19;20366;-79
2023/06/30 15:34:34;;;;;;;7.57;3.45;;;;;;;26.54;49.70;99272.97;12216235;19;20007;-80
2023/06/30 15:38:37;;;;;;;5.20;3.00;;;;;;;26.03;50.48;99273.78;12219502;19;20015;-79
2023/06/30 15:42:39;;;;;;;6.68;3.65;;;;;;;25.37;52.41;99274.47;12193243;19;20016;-79
2023/06/30 15:46:41;;;;;;;4.32;2.70;;;;;;;24.95;54.61;99260.81;12217713;19;20027;-79
2023/06/30 15:50:43;;;;;;;5.95;2.80;;;;;;;24.59;57.63;99270.25;12212194;19;20014;-79
2023/06/30 15:54:48;;;;;;;6.07;3.25;;;;;;;24.32;58.31;99264.16;12192805;19;20015;-79
2023/06/30 15:58:51;;;;;;;4.70;2.75;;;;;;;24.20;58.62;99265.00;12213247;19;20017;-79
2023/06/30 16:02:53;;;;;;;7.28;3.60;;;;;;;24.42;57.75;99260.03;12203321;19;20003;-79
2023/06/30 16:06:55;;;;;;;5.00;2.42;;;;;;;24.59;56.57;99256.97;12212730;19;20028;-79
2023/06/30 16:10:59;;;;;;;4.95;2.83;;;;;;;24.69;56.33;99259.28;12210443;19;20014;-78
2023/06/30 16:15:03;;;;;;;7.60;3.30;;;;;;;24.60;56.19;99249.34;12211195;19;20011;-79
2023/06/30 16:19:06;;;;;;;7.07;3.00;;;;;;;24.42;56.20;99246.84;12210950;19;20019;-79
2023/06/30 16:23:08;;;;;;;4.70;3.07;;;;;;;24.16;57.09;99255.66;12215538;19;20642;-79
2023/06/30 16:27:09;;;;;;;6.77;3.53;;;;;;;23.97;57.04;99259.06;12212203;19;20275;-79
2023/06/30 16:31:11;;;;;;;6.13;2.88;;;;;;;23.82;57.80;99263.38;12217450;19;20011;-80
2023/06/30 16:35:15;;;;;;;3.97;2.70;;;;;;;23.74;57.86;99266.34;12211454;19;20935;-79
2023/06/30 16:39:17;;;;;;;6.07;2.85;;;;;;;23.63;59.04;99261.13;12191660;19;20014;-79
2023/06/30 16:43:20;;;;;;;6.93;3.17;;;;;;;23.88;58.49;99256.38;12210942;19;20373;-79
2023/06/30 16:47:24;;;;;;;4.68;2.90;;;;;;;24.20;57.13;99247.31;12214994;19;20503;-79
2023/06/30 16:51:28;;;;;;;5.13;2.78;;;;;;;24.20;56.80;99244.50;12188404;19;20023;-81
2023/06/30 16:55:30;;;;;;;5.63;3.17;;;;;;;24.11;56.87;99241.81;12210944;19;20394;-81
2023/06/30 16:59:32;;;;;;;3.87;2.83;;;;;;;24.10;57.90;99243.00;12214191;19;20105;-80
2023/06/30 17:03:34;;;;;;;3.40;2.70;;;;;;;24.16;57.39;99238.75;12187822;19;20023;-81
2023/06/30 17:07:36;;;;;;;5.80;2.90;;;;;;;24.05;57.28;99238.41;12217095;19;20011;-81
2023/06/30 17:11:37;;;;;;;5.20;3.10;;;;;;;24.14;56.77;99235.47;12237787;19;20010;-80
2023/06/30 17:15:39;;;;;;;4.63;3.00;;;;;;;24.09;56.99;99238.50;12194431;19;20010;-80
2023/06/30 17:19:41;;;;;;;8.65;2.83;;;;;;;24.00;57.13;99237.81;12219203;19;20014;-81
2023/06/30 17:23:43;;;;;;;5.83;3.07;;;;;;;24.03;56.83;99231.50;12210510;19;20011;-80
2023/06/30 17:27:45;;;;;;;4.43;2.67;;;;;;;23.99;56.71;99233.38;12192563;19;20247;-80
2023/06/30 17:31:47;;;;;;;4.40;2.88;;;;;;;23.87;57.72;99225.78;12213575;19;20352;-81
2023/06/30 17:35:51;;;;;;;3.90;2.53;;;;;;;23.87;57.32;99226.59;12215725;19;20493;-81
2023/06/30 17:39:52;;;;;;;6.00;3.13;;;;;;;23.78;57.53;99233.53;12192652;19;20002;-82
2023/06/30 17:43:54;;;;;;;4.97;3.10;;;;;;;23.73;57.59;99236.56;12210373;19;20356;-83
2023/06/30 17:47:56;;;;;;;5.90;3.03;;;;;;;23.70;57.35;99237.25;12194951;19;20010;-82
2023/06/30 17:51:59;;;;;;;5.77;3.07;;;;;;;23.55;53.31;99245.19;12221073;19;20023;-81
2023/06/30 17:56:01;;;;;;;5.57;3.03;;;;;;;23.50;56.04;99250.22;12211930;19;20039;-81
2023/06/30 18:00:04;;;;;;;4.05;2.75;;;;;;;23.36;56.52;99259.00;12196461;19;20011;-80
2023/06/30 18:04:13;;;;;;;6.07;3.10;;;;;;;23.11;54.26;99260.94;12219757;19;20106;-81
2023/06/30 18:08:15;;;;;;;4.65;2.60;;;;;;;22.93;54.97;99263.06;12231556;19;20035;-81
2023/06/30 18:12:19;;;;;;;;;;;;;;;22.68;55.21;99260.16;12211929;19;20060;-81
2023/06/30 18:16:20;;;;;;;7.55;3.03;;;;;;;22.45;55.93;99262.50;12229904;19;19907;-81
2023/06/30 18:20:22;;;;;;;4.67;2.43;;;;;;;22.18;56.00;99265.84;12248984;19;20013;-81
2023/06/30 18:24:24;;;;;;;5.05;3.05;;;;;;;21.94;56.17;99264.47;12211120;19;20489;-81
2023/06/30 18:28:26;;;;;;;5.07;2.57;;;;;;;21.73;56.24;99283.22;12231998;19;20504;-81
2023/06/30 18:32:28;;;;;;;6.55;2.95;;;;;;;21.52;56.31;99283.16;12231646;19;20035;-80
2023/06/30 18:36:31;;;;;;;6.37;2.90;;;;;;;21.34;57.21;99276.75;12201439;19;20015;-80
2023/06/30 18:40:35;;;;;;;;;;;;;;;21.15;57.67;99275.16;12227505;19;20016;-80
2023/06/30 18:44:37;;;;;;;6.13;2.90;;;;;;;21.00;58.15;99286.91;12225464;19;19922;-79
2023/06/30 18:48:38;;;;;;;5.35;2.50;;;;;;;20.80;59.12;99281.97;12209183;19;20014;-80
2023/06/30 18:52:41;;;;;;;5.32;2.30;;;;;;;20.68;58.08;99300.25;12228062;19;20011;-79
2023/06/30 18:56:42;;;;;;;5.13;2.60;;;;;;;20.51;59.43;99297.44;12225314;19;20018;-81
2023/06/30 19:00:45;;;;;;;;;;;;;;;20.31;60.77;99298.88;12212254;19;20050;-80